createdAt,value
2019-01-22T02:52:19.373Z,0.00
2019-01-22T08:02:41.353Z,1800.00
2019-01-22T08:05:41.357Z,1948.00
2019-01-22T09:21:40.539Z,5412.00
2019-01-22T10:58:39.504Z,8388.00
2019-01-22T11:03:39.484Z,8568.00
2019-01-22T11:04:39.486Z,8572.00
2019-01-22T11:05:42.232Z,8528.00
2019-01-22T11:06:39.439Z,8452.00
2019-01-22T11:07:39.414Z,8356.00
2019-01-22T11:08:39.410Z,8288.00
2019-01-22T11:09:39.600Z,8260.00
2019-01-22T11:10:39.375Z,8256.00
2019-01-22T11:11:39.364Z,8268.00
2019-01-22T11:12:39.751Z,8280.00
2019-01-22T11:13:39.364Z,8316.00
2019-01-22T11:14:39.330Z,8368.00
2019-01-22T11:15:39.354Z,8436.00
2019-01-22T11:16:40.418Z,8480.00
2019-01-22T11:17:39.303Z,8520.00
2019-01-22T11:18:39.278Z,8580.00
2019-01-22T11:19:39.274Z,8656.00
2019-01-22T11:20:39.260Z,8700.00
2019-01-22T11:21:39.372Z,8712.00
2019-01-22T11:22:39.228Z,8696.00
2019-01-22T11:23:39.292Z,8664.00
2019-01-22T11:24:39.222Z,8628.00
2019-01-22T11:25:43.495Z,8568.00
2019-01-22T11:26:39.196Z,8500.00
2019-01-22T11:27:39.178Z,8392.00
2019-01-22T11:28:39.165Z,8288.00
2019-01-22T11:29:40.588Z,8212.00
2019-01-22T11:30:39.637Z,8128.00
2019-01-22T11:31:39.138Z,8032.00
2019-01-22T11:32:39.129Z,7916.00
2019-01-22T11:33:39.110Z,7808.00
2019-01-22T11:34:39.094Z,7728.00
2019-01-22T11:35:39.100Z,7652.00
2019-01-22T11:36:39.103Z,7588.00
2019-01-22T11:37:39.088Z,7536.00
2019-01-22T11:38:39.056Z,7492.00
2019-01-22T11:39:39.049Z,7548.00
2019-01-22T11:40:39.059Z,7572.00
2019-01-22T11:41:39.022Z,7548.00
2019-01-22T11:42:39.022Z,7508.00
2019-01-22T11:43:39.040Z,7452.00
2019-01-22T11:44:39.001Z,7412.00
2019-01-22T11:45:38.980Z,7336.00
2019-01-22T11:46:38.987Z,7288.00
2019-01-22T11:47:38.950Z,7228.00
2019-01-22T11:48:42.127Z,7192.00
2019-01-22T11:49:39.144Z,7060.00
2019-01-22T11:50:38.958Z,6988.00
2019-01-22T11:57:38.835Z,6452.00
2019-01-22T12:09:38.769Z,6232.00
2019-01-22T12:10:38.707Z,6240.00
2019-01-22T12:18:38.615Z,6328.00
2019-01-22T12:23:38.569Z,6368.00
2019-01-22T12:24:38.547Z,6324.00
2019-01-22T12:28:38.504Z,6368.00
2019-01-22T12:30:38.491Z,6300.00
2019-01-22T12:32:38.468Z,6268.00
2019-01-22T12:37:38.412Z,6284.00
2019-01-22T12:38:39.441Z,6212.00
2019-01-22T12:40:38.376Z,6264.00
2019-01-22T12:41:38.579Z,6344.00
2019-01-22T12:42:38.348Z,6404.00
2019-01-22T12:43:38.346Z,6444.00
2019-01-22T12:44:38.358Z,6464.00
2019-01-22T12:45:38.332Z,6464.00
2019-01-22T12:46:41.192Z,6444.00
2019-01-22T12:47:40.292Z,6392.00
2019-01-22T12:48:38.286Z,6352.00
2019-01-22T12:49:38.275Z,6340.00
2019-01-22T12:50:38.482Z,6316.00
2019-01-22T12:51:38.252Z,6252.00
2019-01-22T12:52:38.256Z,6192.00
2019-01-22T12:53:38.245Z,6124.00
2019-01-22T12:54:38.253Z,6040.00
2019-01-22T12:55:38.203Z,5936.00
2019-01-22T12:56:38.198Z,5856.00
2019-01-22T12:57:38.217Z,5840.00
2019-01-22T12:58:38.170Z,5868.00
2019-01-22T12:59:38.160Z,5928.00
2019-01-22T13:00:38.187Z,5960.00
2019-01-22T13:01:38.277Z,5968.00
2019-01-22T13:02:38.142Z,5968.00
2019-01-22T13:03:38.118Z,5940.00
2019-01-22T13:04:38.155Z,5904.00
2019-01-22T13:05:38.133Z,5888.00
2019-01-22T13:06:38.118Z,5896.00
2019-01-22T13:07:38.086Z,5880.00
2019-01-22T13:08:38.482Z,5856.00
2019-01-22T13:09:40.676Z,5848.00
2019-01-22T13:10:38.049Z,5852.00
2019-01-22T13:11:38.250Z,5856.00
2019-01-22T13:12:38.054Z,5856.00
2019-01-22T13:13:39.007Z,5848.00
2019-01-22T13:14:39.176Z,5832.00
2019-01-22T13:15:37.997Z,5788.00
2019-01-22T13:16:37.981Z,5736.00
2019-01-22T13:17:39.206Z,5708.00
2019-01-22T13:18:38.198Z,5680.00
2019-01-22T13:19:37.946Z,5636.00
2019-01-22T13:20:37.941Z,5576.00
2019-01-22T13:21:37.918Z,5580.00
2019-01-22T13:22:37.919Z,5604.00
2019-01-22T13:23:37.897Z,5620.00
2019-01-22T13:24:37.886Z,5616.00
2019-01-22T13:25:37.888Z,5616.00
2019-01-22T13:26:37.902Z,5612.00
2019-01-22T13:27:37.863Z,5636.00
2019-01-22T13:28:37.859Z,5688.00
2019-01-22T13:29:37.849Z,5768.00
2019-01-22T13:30:38.661Z,5852.00
2019-01-22T13:31:37.843Z,5920.00
2019-01-22T13:32:37.807Z,5984.00
2019-01-22T13:33:37.791Z,6032.00
2019-01-22T13:34:38.777Z,6068.00
2019-01-22T13:35:37.785Z,6100.00
2019-01-22T13:36:37.774Z,6112.00
2019-01-22T13:37:37.752Z,6112.00
2019-01-22T13:38:37.796Z,6092.00
2019-01-22T13:39:37.725Z,6048.00
2019-01-22T13:40:37.707Z,5968.00
2019-01-22T13:41:37.705Z,5900.00
2019-01-22T13:42:37.692Z,5828.00
2019-01-22T13:43:37.682Z,5752.00
2019-01-22T13:44:37.668Z,5684.00
2019-01-22T13:45:37.658Z,5632.00
2019-01-22T13:46:37.646Z,5584.00
2019-01-22T13:47:37.651Z,5552.00
2019-01-22T13:48:37.643Z,5556.00
2019-01-22T13:49:37.683Z,5576.00
2019-01-22T13:50:37.635Z,5608.00
2019-01-22T13:51:37.603Z,5636.00
2019-01-22T13:52:37.582Z,5656.00
2019-01-22T13:53:37.571Z,5668.00
2019-01-22T13:54:37.557Z,5688.00
2019-01-22T13:55:37.550Z,5700.00
2019-01-22T13:56:37.538Z,5676.00
2019-01-22T13:57:37.547Z,5640.00
2019-01-22T13:58:37.515Z,5604.00
2019-01-22T13:59:37.524Z,5528.00
2019-01-22T14:00:39.423Z,5480.00
2019-01-22T14:01:37.483Z,5432.00
2019-01-22T14:02:37.484Z,5380.00
2019-01-22T14:03:37.466Z,5340.00
2019-01-22T14:04:37.470Z,5324.00
2019-01-22T14:05:37.552Z,5320.00
2019-01-22T14:06:37.427Z,5332.00
2019-01-22T14:07:37.437Z,5336.00
2019-01-22T14:08:37.430Z,5316.00
2019-01-22T14:09:38.411Z,5268.00
2019-01-22T14:10:37.398Z,5240.00
2019-01-22T14:11:37.375Z,5224.00
2019-01-22T14:12:37.409Z,5204.00
2019-01-22T14:13:37.358Z,5168.00
2019-01-22T14:14:37.348Z,5124.00
2019-01-22T14:15:37.504Z,5084.00
2019-01-22T14:16:37.326Z,5040.00
2019-01-22T14:17:37.493Z,5000.00
2019-01-22T14:18:37.299Z,4968.00
2019-01-22T14:19:39.511Z,4932.00
2019-01-22T14:20:37.281Z,4908.00
2019-01-22T14:21:37.270Z,4852.00
2019-01-22T14:22:37.266Z,4776.00
2019-01-22T14:23:37.242Z,4716.00
2019-01-22T14:24:37.232Z,4668.00
2019-01-22T14:25:37.248Z,4624.00
2019-01-22T14:26:37.209Z,4576.00
2019-01-22T14:27:37.206Z,4532.00
2019-01-22T14:28:37.243Z,4512.00
2019-01-22T14:29:37.887Z,4508.00
2019-01-22T14:30:37.190Z,4504.00
2019-01-22T14:31:37.165Z,4480.00
2019-01-22T14:32:37.169Z,4408.00
2019-01-22T14:33:38.577Z,4292.00
2019-01-22T14:34:37.215Z,4172.00
2019-01-22T14:35:37.122Z,4064.00
2019-01-22T14:36:37.104Z,3964.00
2019-01-22T14:37:37.107Z,3888.00
2019-01-22T14:38:37.100Z,3820.00
2019-01-22T14:39:37.479Z,3768.00
2019-01-22T14:40:37.063Z,3748.00
2019-01-22T14:41:37.046Z,3724.00
2019-01-22T14:42:37.243Z,3704.00
2019-01-22T14:43:37.259Z,3680.00
2019-01-22T14:44:37.047Z,3652.00
2019-01-22T14:45:37.125Z,3608.00
2019-01-22T14:52:36.958Z,3060.00
2019-01-22T20:13:14.109Z,0.00
2019-01-22T20:26:13.998Z,0.00
2019-01-22T20:29:13.943Z,0.00
2019-01-22T20:30:13.936Z,0.00
2019-01-22T20:39:13.848Z,0.00
2019-01-22T20:53:13.702Z,0.00
2019-01-22T21:05:13.590Z,0.00
2019-01-22T21:10:13.529Z,0.00
2019-01-22T21:14:13.487Z,0.00
2019-01-22T21:21:14.813Z,0.00
2019-01-22T21:28:13.324Z,0.00
2019-01-22T21:29:13.336Z,0.00
2019-01-22T21:34:13.280Z,0.00
2019-01-22T21:41:13.211Z,0.00
2019-01-22T22:44:12.527Z,0.00
2019-01-22T22:46:12.515Z,0.00
2019-01-22T23:35:36.647Z,0.00
